Flight Track Log - Related Links

Times and Time Zones

All times are in EDT time to prevent confusion due to time zone crossing. See the AWI3970 flight status page for this flight to view local times or setup timezone preferences in your user account.

Time Position Orientation Groundspeed Altitude Reporting Facility
EDT Latitude Longitude Course Direction KTS MPH feet Rate Location/Type
Sun 11:03:54 PM 39.8667 -75.2833 North 158 182 1,100  Level Philadelphia TRACON
Sun 11:04:12 PM 39.8500 -75.3000 218° Southwest 141 162 2,000 1,769 Climbing Philadelphia TRACON
Sun 11:05:12 PM 39.8333 -75.3500 247° West 218 251 3,400 1,617 Climbing Philadelphia TRACON
Sun 11:06:07 PM 39.8000 -75.4167 237° Southwest 264 304 5,100 2,182 Climbing Philadelphia TRACON
Sun 11:07:13 PM 39.7167 -75.4167 180° South 307 353 7,800 2,476 Climbing Philadelphia TRACON
Sun 11:08:00 PM 39.8387 -74.6447 37° Northeast  Level FlightAware
Sun 11:08:13 PM 39.7167 -75.3000 90° East 322 371 10,300  Level Philadelphia TRACON
Sun 11:09:00 PM 39.9177 -74.5667 North  Level FlightAware
Sun 11:09:13 PM 39.7333 -75.1833 79° East 339 390 12,000  Level Philadelphia TRACON
Sun 11:10:13 PM 39.7500 -75.0500 81° East 375 432 12,000  Level Philadelphia TRACON
Sun 11:11:51 PM 39.7761 -74.8550 80° East 410 472 12,000 654 Level New Center
Sun 11:12:49 PM 39.8103 -74.7056 73° East 394 453 13,700 1,714 Climbing New Center
Sun 11:13:50 PM 39.8944 -74.6183 38° Northeast 366 421 15,400 1,537 Climbing New Center
Sun 11:14:50 PM 39.9786 -74.5336 38° Northeast 366 421 16,800 1,250 Climbing New Center
Sun 11:15:50 PM 40.0800 -74.4928 17° North 366 421 17,900 1,200 Climbing New Center
Sun 11:16:50 PM 40.1869 -74.4661 11° North 379 436 19,200 1,200 Climbing New Center
Sun 11:17:50 PM 40.2942 -74.4392 11° North 379 436 20,300 1,240 Climbing New Center
Sun 11:18:51 PM 40.4014 -74.4122 11° North 384 442 21,700 1,463 Climbing New Center
Sun 11:20:30 PM 40.5686 -74.3661 12° North 388 447 24,200 1,283 Climbing Boston Center
Sun 11:21:30 PM 40.6733 -74.3419 10° North 388 447 25,100 900 Climbing Boston Center
Sun 11:22:30 PM 40.7800 -74.3203 North 383 441 26,000 450 Climbing Boston Center
Sun 11:23:30 PM 40.8867 -74.2933 11° North 390 449 26,000  Level Boston Center
Sun 11:24:30 PM 40.9978 -74.2633 12° North 390 449 26,000  Level Boston Center
Sun 11:25:30 PM 41.0981 -74.2386 11° North 385 443 26,000  Level Boston Center
Sun 11:26:30 PM 41.2069 -74.2114 11° North 385 443 26,000  Level Boston Center
Sun 11:27:30 PM 41.3178 -74.1786 13° North 379 436 26,000  Level Boston Center
Sun 11:28:30 PM 41.4267 -74.1511 11° North 379 436 26,000 -550 Level Boston Center
Sun 11:29:30 PM 41.5125 -74.1283 11° North 379 436 24,900 -1,550 Descending Boston Center
Sun 11:30:30 PM 41.6275 -74.1008 10° North 384 442 22,900 -2,000 Descending Boston Center
Sun 11:31:30 PM 41.7258 -74.0756 11° North 371 427 20,900 -2,200 Descending Boston Center
Sun 11:32:30 PM 41.8283 -74.0506 10° North 350 403 18,500 -2,430 Descending Boston Center
Sun 11:32:49 PM 41.8575 -74.0456 North 340 391 17,700 -2,500 Descending Boston Center
Sun 11:33:30 PM 41.9203 -74.0250 14° North 336 387 16,000 -2,328 Descending Boston Center
Sun 11:33:56 PM 41.9642 -74.0175 North 337 388 15,100 -1,667 Descending Boston Center
Sun 11:34:42 PM 42.0103 -74.0019 14° North 336 387 14,000 -2,208 Descending Boston Center
Sun 11:35:42 PM 42.1131 -73.9681 14° North 320 368 11,200 -2,400 Descending Boston Center
Sun 11:35:57 PM 42.1339 -73.9658 North 308 354 11,000 -200 Descending Boston Center
Sun 11:36:42 PM 42.1842 -73.9475 15° North 297 342 11,000 -492 Level Boston Center
Sun 11:36:58 PM 42.2133 -73.9397 11° North 288 331 10,500 -1,900 Descending Boston Center
Sun 11:37:42 PM 42.2719 -73.9217 13° North 292 336 9,100 -1,900 Descending Boston Center
Sun 11:37:58 PM 42.2908 -73.9164 12° North 287 330 8,600 -1,600 Descending Boston Center
Sun 11:38:42 PM 42.3411 -73.9006 13° North 286 329 7,500 -1,574 Descending Boston Center
Sun 11:38:59 PM 42.3681 -73.8931 12° North 284 327 7,000 -1,600 Descending Boston Center
Sun 11:39:42 PM 42.4183 -73.8744 15° North 265 305 5,900 -1,475 Descending Boston Center
Sun 11:40:00 PM 42.4372 -73.8747 359° North 249 287 5,500 -1,400 Descending Boston Center
Sun 11:40:42 PM 42.4792 -73.8561 18° North 252 290 4,500 -1,600 Descending Boston Center
Sun 11:41:00 PM 42.5064 -73.8483 12° North 234 269 3,900 -1,600 Descending Boston Center
Sun 11:41:42 PM 42.5481 -73.8350 13° North 236 272 2,900 -1,429 Descending Boston Center

Login

Don't have an account? Register now (free) for customized features, flight alerts, and more!